Аэропорт
Челябинск (USCC)

 USCC / CEK
ЗЦ Екатеринбург
Екатеринбург (USSS)
Челябинск (USCC)
 55.30580, 61.50330  / 769 ft

 USCC 250830Z 13004MPS 9999 BKN040 M04/M06 Q1012 R09/000060 NOSIG RMK QFE738
 TAF USCC 250800Z 2509/2609 14003G10MPS 6000 BKN020 TEMPO 2512/2524 3100 -SN BKN011 FM260000 10003G08MPS 1200 SN VV004
АИП 1605, АИП Таблицы, Данные
показать схемы

2020 © VATRUS division (Privacy Policy)